首页
METAR-TAF:

METAR-TAF

机场 :

Sumburgh, 设德兰群岛, 苏格兰

纬度: 59-53N, 经度: 001-18W, 海拔: 5米

当前天气观测

该预报发布于23分钟前的21:20 UTC
风速12节,风向
温度 7°C
湿度 76%
气压 1020 hPa
能见度10公里或以上
多云层高于2400英尺

METAR: EGPB 262120Z 36012KT 9999 BKN024 07/03 Q1020 NOSIG

时间: 22:43 (21:43 UTC)

预报

该预报发布于1小时和44分钟前的19:59 UTC
预报有效从26日的 21点(UTC)到 27日的 06点(UTC)
风速13节,风向
能见度10公里或以上
散云层高于2500英尺
几率 30% :
短暂存在
从 26日的 21点(UTC)到 26日的 24点(UTC)
风速16节,风向,有时为26节阵风

TAF: EGPB 261959Z 2621/2706 36013KT 9999 SCT025 PROB30 TEMPO 2621/2624 01016G26KT

超过4000个机场的气象观测和天气预报(METAR&TAF报告)。

可查询的气象台以黄色和红色小点在地图上表示。

将鼠标移到小点上方,可查看气象台名称。

然后点击查看天气观测和预报。

如需切换地图:点击带黑十字的绿色按钮放大地图;点击带横线的绿色按钮缩小地图;或者点击绿色箭头查看邻近地区的地图。


METAR-TAF: